Time;durP1;ratioP1;P1;durP2;ratioP2;P2;SDS_P1;SDS_P2;PMS_P1;PMS_P2;Temp;Humidity;BMP_temperature;BMP_pressure;BME280_temperature;BME280_humidity;BME280_pressure;Samples;Min_cycle;Max_cycle;Signal;HPM_P1;HPM_P2
2022/03/18 00:00:21;;;;;;;;;;;3.70;69.40;;;;;;5067192;27;86825;-49
2022/03/18 00:02:47;;;;;;;;;;;3.70;69.30;;;;;;5067691;27;87834;-48
2022/03/18 00:05:14;;;;;;;;;;;3.70;69.30;;;;;;5066552;27;87395;-48
2022/03/18 00:07:41;;;;;;;;;;;3.70;69.30;;;;;;5066430;27;86845;-50
2022/03/18 00:10:07;;;;;;;;;;;3.70;69.30;;;;;;5066489;27;87852;-48
2022/03/18 00:12:33;;;;;;;;;;;3.70;69.30;;;;;;5066770;27;87752;-48
2022/03/18 00:14:59;;;;;;;;;;;3.70;69.20;;;;;;5067021;27;87038;-48
2022/03/18 00:17:25;;;;;;;;;;;3.70;69.20;;;;;;5069722;27;87334;-49
2022/03/18 00:19:51;;;;;;;;;;;3.70;69.30;;;;;;5066939;27;86821;-48
2022/03/18 00:22:17;;;;;;;;;;;3.70;69.20;;;;;;5067319;27;86823;-48
2022/03/18 00:24:42;;;;;;;;;;;3.60;69.30;;;;;;5066496;27;88524;-49
2022/03/18 00:27:09;;;;;;;;;;;3.60;69.40;;;;;;5067377;27;86329;-48
2022/03/18 00:29:35;;;;;;;;;;;3.60;69.30;;;;;;5066997;27;87167;-49
2022/03/18 00:32:01;;;;;;;;;;;3.60;69.20;;;;;;5066597;27;87531;-48
2022/03/18 00:34:27;;;;;;;;;;;3.60;69.30;;;;;;5065425;27;87880;-48
2022/03/18 00:36:54;;;;;;;;;;;3.70;69.30;;;;;;5066663;27;88800;-49
2022/03/18 00:39:20;;;;;;;;;;;3.60;70.00;;;;;;5069209;27;88716;-48
2022/03/18 00:41:46;;;;;;;;;;;3.60;69.30;;;;;;5066566;27;87101;-48
2022/03/18 00:44:11;;;;;;;;;;;3.60;69.30;;;;;;5066306;27;87434;-48
2022/03/18 00:46:37;;;;;;;;;;;3.60;69.20;;;;;;5066421;27;86923;-49
2022/03/18 00:52:04;;;;;;;;;;;3.60;69.40;;;;;;5066874;27;86129;-48
2022/03/18 00:54:36;;;;;;;;;;;3.60;69.20;;;;;;5066449;27;87678;-49
2022/03/18 00:57:03;;;;;;;;;;;3.60;69.20;;;;;;5066745;27;87033;-48
2022/03/18 00:59:30;;;;;;;;;;;3.60;69.20;;;;;;5065378;27;88860;-49
2022/03/18 01:01:57;;;;;;;;;;;3.50;69.20;;;;;;5069659;27;87102;-48
2022/03/18 01:04:23;;;;;;;;;;;3.50;69.10;;;;;;5065948;27;88510;-48
2022/03/18 01:06:49;;;;;;;;;;;3.50;69.30;;;;;;5066353;27;87104;-48
2022/03/18 01:09:16;;;;;;;;;;;3.50;69.30;;;;;;5066274;27;88003;-48
2022/03/18 01:11:42;;;;;;;;;;;3.50;69.40;;;;;;5066284;27;86728;-48
2022/03/18 01:14:08;;;;;;;;;;;3.40;69.30;;;;;;5066448;27;86904;-48
2022/03/18 01:16:34;;;;;;;;;;;3.40;69.40;;;;;;5066741;27;86965;-48
2022/03/18 01:18:59;;;;;;;;;;;3.40;69.40;;;;;;5069313;27;87516;-49
2022/03/18 01:21:25;;;;;;;;;;;3.40;69.30;;;;;;5069805;27;86822;-48
2022/03/18 01:23:51;;;;;;;;;;;3.40;69.30;;;;;;5071615;27;87879;-48
2022/03/18 01:26:17;;;;;;;;;;;3.40;69.30;;;;;;5069441;27;87092;-49
2022/03/18 01:28:43;;;;;;;;;;;3.40;69.30;;;;;;5069706;27;87960;-48
2022/03/18 01:31:09;;;;;;;;;;;3.30;69.40;;;;;;5069273;27;87663;-48
2022/03/18 01:33:36;;;;;;;;;;;3.30;69.30;;;;;;5069866;27;86955;-48
2022/03/18 01:36:03;;;;;;;;;;;3.30;69.40;;;;;;5069412;27;88244;-49
2022/03/18 01:38:29;;;;;;;;;;;3.30;69.30;;;;;;5069201;27;88408;-48
2022/03/18 01:40:55;;;;;;;;;;;3.30;69.30;;;;;;5070003;27;86628;-48
2022/03/18 01:43:21;;;;;;;;;;;3.30;69.50;;;;;;5069549;27;87136;-48
2022/03/18 01:45:47;;;;;;;;;;;3.30;69.50;;;;;;5071734;27;88483;-48
2022/03/18 01:48:14;;;;;;;;;;;3.30;69.50;;;;;;5068690;27;88039;-48
2022/03/18 01:50:41;;;;;;;;;;;3.30;69.40;;;;;;5068931;27;88581;-48
2022/03/18 01:53:07;;;;;;;;;;;3.20;69.50;;;;;;5069240;27;86975;-48
2022/03/18 01:55:33;;;;;;;;;;;3.30;69.40;;;;;;5069378;27;86885;-49
2022/03/18 01:57:58;;;;;;;;;;;3.20;69.30;;;;;;5069000;27;86896;-48
2022/03/18 02:00:24;;;;;;;;;;;3.20;69.50;;;;;;5069272;27;87032;-48
2022/03/18 02:02:51;;;;;;;;;;;3.20;69.40;;;;;;5069172;27;88132;-48
2022/03/18 02:05:18;;;;;;;;;;;3.20;70.00;;;;;;5069139;27;87993;-48
2022/03/18 02:07:46;;;;;;;;;;;3.20;69.30;;;;;;5072011;27;86891;-48
2022/03/18 02:10:12;;;;;;;;;;;3.20;69.30;;;;;;5068920;27;87524;-48
2022/03/18 02:12:39;;;;;;;;;;;3.20;69.40;;;;;;5068249;27;87967;-49
2022/03/18 02:15:05;;;;;;;;;;;3.10;69.30;;;;;;5068870;27;88709;-48
2022/03/18 02:17:31;;;;;;;;;;;3.20;69.30;;;;;;5068829;27;86913;-48
2022/03/18 02:19:56;;;;;;;;;;;3.20;69.40;;;;;;5069132;27;86865;-50
2022/03/18 02:22:23;;;;;;;;;;;3.10;69.30;;;;;;5069069;27;86991;-48
2022/03/18 02:24:49;;;;;;;;;;;3.20;69.20;;;;;;5068342;27;88571;-48
2022/03/18 02:27:16;;;;;;;;;;;3.20;69.10;;;;;;5071848;27;86850;-48
2022/03/18 02:29:42;;;;;;;;;;;3.20;69.10;;;;;;5068153;27;87291;-48
2022/03/18 02:32:08;;;;;;;;;;;3.20;69.00;;;;;;5068932;27;86758;-48
2022/03/18 02:34:35;;;;;;;;;;;3.10;69.10;;;;;;5068846;27;86806;-48
2022/03/18 02:37:01;;;;;;;;;;;3.10;69.10;;;;;;5067819;27;88436;-48
2022/03/18 02:39:27;;;;;;;;;;;3.10;69.40;;;;;;5068474;27;86882;-49
2022/03/18 02:41:52;;;;;;;;;;;3.10;69.20;;;;;;5068820;27;86854;-48
2022/03/18 02:44:18;;;;;;;;;;;3.10;69.00;;;;;;5068041;27;87518;-49
2022/03/18 02:46:44;;;;;;;;;;;3.10;69.10;;;;;;5068286;27;87048;-48
2022/03/18 02:49:10;;;;;;;;;;;3.10;69.10;;;;;;5071177;27;86837;-48
2022/03/18 02:51:37;;;;;;;;;;;3.10;69.20;;;;;;5068284;27;86763;-48
2022/03/18 02:54:04;;;;;;;;;;;3.10;69.20;;;;;;5068676;27;87725;-48
2022/03/18 02:56:29;;;;;;;;;;;3.00;69.20;;;;;;5068061;27;87465;-48
2022/03/18 02:58:55;;;;;;;;;;;3.00;69.20;;;;;;5068144;27;86830;-48
2022/03/18 03:01:21;;;;;;;;;;;3.00;69.10;;;;;;5067851;27;87935;-48
2022/03/18 03:03:46;;;;;;;;;;;3.00;69.10;;;;;;5067700;27;88621;-48
2022/03/18 03:08:56;;;;;;;;;;;3.00;69.10;;;;;;5068223;27;86927;-48
2022/03/18 03:11:22;;;;;;;;;;;3.00;68.90;;;;;;5070565;27;88492;-48
2022/03/18 03:13:51;;;;;;;;;;;3.00;69.20;;;;;;5067916;27;87954;-48
2022/03/18 03:16:19;;;;;;;;;;;3.00;69.00;;;;;;5067469;27;87684;-49
2022/03/18 03:18:45;;;;;;;;;;;3.00;68.90;;;;;;5068396;27;86327;-48
2022/03/18 03:21:11;;;;;;;;;;;3.00;68.80;;;;;;5067848;27;87319;-48
2022/03/18 03:23:37;;;;;;;;;;;3.00;69.00;;;;;;5067642;27;87585;-48
2022/03/18 03:26:03;;;;;;;;;;;2.90;69.00;;;;;;5067120;27;87789;-49
2022/03/18 03:28:29;;;;;;;;;;;2.90;69.00;;;;;;5067717;27;88792;-48
2022/03/18 03:30:55;;;;;;;;;;;2.90;69.10;;;;;;5067372;27;88485;-50
2022/03/18 03:33:21;;;;;;;;;;;2.90;69.10;;;;;;5070945;27;86923;-48
2022/03/18 03:35:48;;;;;;;;;;;2.90;69.00;;;;;;5067441;27;86901;-48
2022/03/18 03:38:14;;;;;;;;;;;2.90;69.00;;;;;;5067644;27;86844;-48
2022/03/18 03:40:41;;;;;;;;;;;2.90;68.90;;;;;;5067369;27;87736;-48
2022/03/18 03:43:08;;;;;;;;;;;2.90;68.80;;;;;;5067643;27;86959;-49
2022/03/18 03:45:35;;;;;;;;;;;2.90;68.80;;;;;;5066836;27;87157;-48
2022/03/18 03:48:00;;;;;;;;;;;2.90;68.80;;;;;;5067480;27;87618;-48
2022/03/18 03:50:27;;;;;;;;;;;2.90;68.80;;;;;;5066418;27;88769;-48
2022/03/18 03:52:53;;;;;;;;;;;2.90;68.80;;;;;;5067317;27;86851;-48
2022/03/18 03:55:18;;;;;;;;;;;2.90;68.80;;;;;;5070133;27;88792;-48
2022/03/18 03:57:44;;;;;;;;;;;2.80;68.70;;;;;;5067487;27;86942;-48
2022/03/18 04:00:11;;;;;;;;;;;2.80;68.80;;;;;;5067600;27;86841;-48
2022/03/18 04:02:37;;;;;;;;;;;2.80;68.70;;;;;;5066791;27;88648;-49
2022/03/18 04:05:07;;;;;;;;;;;2.80;68.70;;;;;;5067165;27;86893;-49
2022/03/18 04:07:33;;;;;;;;;;;2.80;68.50;;;;;;5067659;27;87014;-48
2022/03/18 04:09:59;;;;;;;;;;;2.80;68.50;;;;;;5066987;27;87292;-48
2022/03/18 04:12:24;;;;;;;;;;;2.80;68.80;;;;;;5067181;27;87332;-48
2022/03/18 04:14:51;;;;;;;;;;;2.80;68.60;;;;;;5066548;27;88380;-48
2022/03/18 04:17:17;;;;;;;;;;;2.80;68.50;;;;;;5069419;27;88667;-48
2022/03/18 04:19:43;;;;;;;;;;;2.80;68.40;;;;;;5066981;27;88018;-48
2022/03/18 04:22:09;;;;;;;;;;;2.80;68.50;;;;;;5066586;27;88305;-48
2022/03/18 04:24:35;;;;;;;;;;;2.80;68.60;;;;;;5066874;27;86791;-49
2022/03/18 04:27:01;;;;;;;;;;;2.70;68.40;;;;;;5066994;27;87854;-49
2022/03/18 04:29:27;;;;;;;;;;;2.70;68.40;;;;;;5066347;27;87767;-48
2022/03/18 04:31:52;;;;;;;;;;;2.70;68.30;;;;;;5067273;27;86228;-48
2022/03/18 04:34:18;;;;;;;;;;;2.70;68.50;;;;;;5066891;27;87067;-48
2022/03/18 04:36:44;;;;;;;;;;;2.60;68.20;;;;;;5069428;27;87440;-48
2022/03/18 04:39:10;;;;;;;;;;;2.70;68.40;;;;;;5066221;27;88210;-49
2022/03/18 04:41:36;;;;;;;;;;;2.70;68.30;;;;;;5066590;27;86898;-48
2022/03/18 04:44:02;;;;;;;;;;;2.60;68.30;;;;;;5066602;27;86930;-48
2022/03/18 04:46:28;;;;;;;;;;;2.60;68.30;;;;;;5066206;27;88062;-49
2022/03/18 04:48:54;;;;;;;;;;;2.60;68.20;;;;;;5066011;27;88665;-48
2022/03/18 04:51:20;;;;;;;;;;;2.60;68.10;;;;;;5066428;27;87038;-48
2022/03/18 04:53:46;;;;;;;;;;;2.70;68.00;;;;;;5069603;27;86877;-48
2022/03/18 04:57:15;;;;;;;;;;;2.60;68.00;;;;;;5069994;27;88063;-48
2022/03/18 04:58:57;;;;;;;;;;;2.60;67.80;;;;;;5072760;27;86887;-48
2022/03/18 05:01:23;;;;;;;;;;;2.60;67.80;;;;;;5069960;27;86888;-48
2022/03/18 05:03:49;;;;;;;;;;;2.70;67.80;;;;;;5068572;27;87846;-48
2022/03/18 05:06:15;;;;;;;;;;;2.70;67.90;;;;;;5070034;27;88784;-48
2022/03/18 05:08:40;;;;;;;;;;;2.60;67.70;;;;;;5069658;27;88612;-49
2022/03/18 05:11:06;;;;;;;;;;;2.60;68.00;;;;;;5070244;27;86848;-48
2022/03/18 05:13:31;;;;;;;;;;;2.60;67.80;;;;;;5070237;27;86871;-48
2022/03/18 05:15:57;;;;;;;;;;;2.60;67.80;;;;;;5069444;27;88544;-48
2022/03/18 05:18:23;;;;;;;;;;;2.60;67.80;;;;;;5069893;27;86900;-50
2022/03/18 05:20:48;;;;;;;;;;;2.60;67.80;;;;;;5072922;27;86599;-48
2022/03/18 05:23:14;;;;;;;;;;;2.60;67.70;;;;;;5070099;27;86763;-49
2022/03/18 05:25:40;;;;;;;;;;;2.60;67.80;;;;;;5070106;27;87080;-48
2022/03/18 05:28:07;;;;;;;;;;;2.60;67.60;;;;;;5068766;27;89462;-48
2022/03/18 05:30:33;;;;;;;;;;;2.60;67.50;;;;;;5069601;27;86895;-48
2022/03/18 05:32:59;;;;;;;;;;;2.60;67.70;;;;;;5069664;27;86997;-48
2022/03/18 05:35:25;;;;;;;;;;;2.60;67.60;;;;;;5069166;27;87708;-48
2022/03/18 05:37:50;;;;;;;;;;;2.60;67.70;;;;;;5069769;27;87034;-50
2022/03/18 05:40:18;;;;;;;;;;;2.60;67.60;;;;;;5069703;27;86858;-49
2022/03/18 05:42:44;;;;;;;;;;;2.60;67.80;;;;;;5071757;27;88507;-48
2022/03/18 05:45:09;;;;;;;;;;;2.60;67.60;;;;;;5068884;27;86721;-49
2022/03/18 05:47:35;;;;;;;;;;;2.60;67.40;;;;;;5068369;27;87657;-49
2022/03/18 05:50:03;;;;;;;;;;;2.60;67.60;;;;;;5068688;27;86913;-49
2022/03/18 05:52:30;;;;;;;;;;;2.60;67.70;;;;;;5068572;27;87779;-48
2022/03/18 05:54:56;;;;;;;;;;;2.60;67.60;;;;;;5068331;27;88552;-49
2022/03/18 05:57:23;;;;;;;;;;;2.60;67.50;;;;;;5068965;27;86905;-49
2022/03/18 05:59:49;;;;;;;;;;;2.60;67.40;;;;;;5068610;27;86993;-49
2022/03/18 06:02:14;;;;;;;;;;;2.70;67.40;;;;;;5068418;27;88018;-49
2022/03/18 06:04:42;;;;;;;;;;;2.60;67.50;;;;;;5071772;27;86854;-50
2022/03/18 06:07:07;;;;;;;;;;;2.60;67.50;;;;;;5068239;27;88541;-48
2022/03/18 06:12:17;;;;;;;;;;;2.60;67.50;;;;;;5068776;27;87034;-48
2022/03/18 06:14:43;;;;;;;;;;;2.60;67.50;;;;;;5068316;27;88332;-48
2022/03/18 06:17:08;;;;;;;;;;;2.60;67.40;;;;;;5067638;27;87819;-48
2022/03/18 06:19:34;;;;;;;;;;;2.60;67.40;;;;;;5068444;27;88928;-49
2022/03/18 06:22:00;;;;;;;;;;;2.70;67.40;;;;;;5067929;27;88389;-49
2022/03/18 06:24:26;;;;;;;;;;;2.70;67.40;;;;;;5068286;27;86845;-49
2022/03/18 06:26:52;;;;;;;;;;;2.60;67.30;;;;;;5071084;27;86960;-50
2022/03/18 06:29:19;;;;;;;;;;;2.60;67.40;;;;;;5068047;27;86978;-48
2022/03/18 06:31:44;;;;;;;;;;;2.70;67.40;;;;;;5068484;27;86902;-48
2022/03/18 06:34:10;;;;;;;;;;;2.60;67.40;;;;;;5068808;27;86791;-49
2022/03/18 06:36:37;;;;;;;;;;;2.60;67.30;;;;;;5068015;27;86844;-48
2022/03/18 06:39:05;;;;;;;;;;;2.60;67.40;;;;;;5068109;27;86987;-49
2022/03/18 06:41:31;;;;;;;;;;;2.60;67.10;;;;;;5066915;27;89418;-48
2022/03/18 06:43:57;;;;;;;;;;;2.60;67.10;;;;;;5068386;27;86849;-49
2022/03/18 06:46:23;;;;;;;;;;;2.60;67.10;;;;;;5070199;27;88062;-48
2022/03/18 06:48:49;;;;;;;;;;;2.60;67.00;;;;;;5068154;27;86822;-50
2022/03/18 06:51:15;;;;;;;;;;;2.70;67.10;;;;;;5067928;27;88196;-49
2022/03/18 06:53:40;;;;;;;;;;;2.70;67.00;;;;;;5067613;27;87827;-48
2022/03/18 06:56:06;;;;;;;;;;;2.70;66.80;;;;;;5067715;27;86937;-48
2022/03/18 06:58:32;;;;;;;;;;;2.60;66.70;;;;;;5068192;27;87163;-48
2022/03/18 07:00:58;;;;;;;;;;;2.70;66.70;;;;;;5067121;27;88730;-49
2022/03/18 07:03:23;;;;;;;;;;;2.70;66.40;;;;;;5067664;27;86871;-50
2022/03/18 07:05:49;;;;;;;;;;;2.60;66.20;;;;;;5067240;27;87756;-48
2022/03/18 07:08:15;;;;;;;;;;;2.70;66.30;;;;;;5070414;27;86870;-49
2022/03/18 07:10:41;;;;;;;;;;;2.60;66.30;;;;;;5067678;27;87932;-49
2022/03/18 07:13:07;;;;;;;;;;;2.70;66.10;;;;;;5067179;27;87563;-51
2022/03/18 07:15:33;;;;;;;;;;;2.60;66.00;;;;;;5066870;27;86994;-49
2022/03/18 07:17:59;;;;;;;;;;;2.60;65.70;;;;;;5067464;27;88140;-49
2022/03/18 07:20:26;;;;;;;;;;;2.60;66.30;;;;;;5067111;27;88351;-50
2022/03/18 07:23:10;;;;;;;;;;;2.60;66.10;;;;;;5068340;27;86176;-48
2022/03/18 07:25:37;;;;;;;;;;;2.60;66.10;;;;;;5067450;27;87172;-50
2022/03/18 07:28:04;;;;;;;;;;;2.60;65.90;;;;;;5066960;27;88777;-50
2022/03/18 07:30:29;;;;;;;;;;;2.60;65.90;;;;;;5069623;27;87869;-49
2022/03/18 07:32:55;;;;;;;;;;;2.60;65.80;;;;;;5066872;27;88570;-48
2022/03/18 07:35:21;;;;;;;;;;;2.60;65.60;;;;;;5067626;27;86838;-52
2022/03/18 07:37:48;;;;;;;;;;;2.60;65.80;;;;;;5066583;27;86917;-49
2022/03/18 07:40:14;;;;;;;;;;;2.60;65.40;;;;;;5066632;27;88501;-51
2022/03/18 07:42:44;;;;;;;;;;;2.60;65.90;;;;;;5067101;27;87406;-50
2022/03/18 07:45:11;;;;;;;;;;;2.60;65.80;;;;;;5066804;27;87977;-49
2022/03/18 07:47:36;;;;;;;;;;;2.60;65.90;;;;;;5067063;27;87272;-50
2022/03/18 07:50:02;;;;;;;;;;;2.60;65.60;;;;;;5066713;27;87073;-48
2022/03/18 07:52:28;;;;;;;;;;;2.60;65.80;;;;;;5066745;27;86903;-50
2022/03/18 07:54:53;;;;;;;;;;;2.50;66.00;;;;;;5066186;27;87821;-51
2022/03/18 07:57:19;;;;;;;;;;;2.60;66.00;;;;;;5067159;27;88029;-49
2022/03/18 07:59:44;;;;;;;;;;;2.60;66.00;;;;;;5066494;27;87740;-51
2022/03/18 08:02:10;;;;;;;;;;;2.60;65.90;;;;;;5066251;27;87295;-49
2022/03/18 08:04:36;;;;;;;;;;;2.60;65.80;;;;;;5067220;27;86840;-49
2022/03/18 08:07:02;;;;;;;;;;;2.60;65.70;;;;;;5066553;27;88771;-51
2022/03/18 08:09:28;;;;;;;;;;;2.60;65.70;;;;;;5066749;27;86912;-50
2022/03/18 08:11:54;;;;;;;;;;;2.60;65.60;;;;;;5067527;27;86126;-50
2022/03/18 08:14:19;;;;;;;;;;;2.60;65.60;;;;;;5069379;27;87466;-52
2022/03/18 08:16:45;;;;;;;;;;;2.60;65.60;;;;;;5066816;27;87117;-48
2022/03/18 08:19:11;;;;;;;;;;;2.60;65.40;;;;;;5065754;27;88413;-50
2022/03/18 08:21:37;;;;;;;;;;;2.60;65.50;;;;;;5066679;27;86889;-49
2022/03/18 08:24:03;;;;;;;;;;;2.60;65.20;;;;;;5066551;27;87837;-48
2022/03/18 08:26:28;;;;;;;;;;;2.60;64.80;;;;;;5065407;27;88956;-49
2022/03/18 08:28:57;;;;;;;;;;;2.60;64.90;;;;;;5066233;27;86919;-48
2022/03/18 08:31:22;;;;;;;;;;;2.60;64.70;;;;;;5066621;27;87194;-50
2022/03/18 08:33:48;;;;;;;;;;;2.60;64.60;;;;;;5066096;27;87485;-49
2022/03/18 08:36:14;;;;;;;;;;;2.60;64.60;;;;;;5069788;27;86116;-53
2022/03/18 08:38:40;;;;;;;;;;;2.60;64.40;;;;;;5065942;27;88545;-49
2022/03/18 08:41:06;;;;;;;;;;;2.60;64.20;;;;;;5066195;27;87087;-48
2022/03/18 08:43:31;;;;;;;;;;;2.60;64.20;;;;;;5065676;27;87940;-50
2022/03/18 08:45:57;;;;;;;;;;;2.60;64.70;;;;;;5065232;27;87599;-50
2022/03/18 08:48:22;;;;;;;;;;;2.70;64.30;;;;;;5066074;27;86845;-49
2022/03/18 08:50:48;;;;;;;;;;;2.60;64.10;;;;;;5066148;27;87890;-51
2022/03/18 08:53:14;;;;;;;;;;;2.60;64.00;;;;;;5065630;27;89037;-48
2022/03/18 08:55:40;;;;;;;;;;;2.70;63.50;;;;;;5069151;27;86790;-49
2022/03/18 08:58:07;;;;;;;;;;;2.70;63.80;;;;;;5065677;27;88773;-53
2022/03/18 09:00:34;;;;;;;;;;;2.70;64.00;;;;;;5066612;27;86100;-49
2022/03/18 09:02:59;;;;;;;;;;;2.70;63.80;;;;;;5066182;27;86942;-52
2022/03/18 09:05:25;;;;;;;;;;;2.70;64.20;;;;;;5065693;27;88619;-49
2022/03/18 09:07:50;;;;;;;;;;;2.70;64.30;;;;;;5065240;27;87759;-52
2022/03/18 09:10:16;;;;;;;;;;;2.70;63.70;;;;;;5066003;27;87661;-49
2022/03/18 09:12:45;;;;;;;;;;;2.70;63.90;;;;;;5065341;27;88774;-49
2022/03/18 09:15:11;;;;;;;;;;;2.70;63.70;;;;;;5066171;27;86883;-50
2022/03/18 09:17:37;;;;;;;;;;;2.70;63.70;;;;;;5068095;27;88192;-49
2022/03/18 09:20:03;;;;;;;;;;;2.70;63.80;;;;;;5066112;27;86808;-51
2022/03/18 09:22:28;;;;;;;;;;;2.70;63.70;;;;;;5065758;27;88086;-50
2022/03/18 09:24:54;;;;;;;;;;;2.70;63.70;;;;;;5065665;27;87781;-48
2022/03/18 09:27:20;;;;;;;;;;;2.70;63.10;;;;;;5065647;27;86859;-49
2022/03/18 09:29:45;;;;;;;;;;;2.80;63.20;;;;;;5065845;27;88266;-49
2022/03/18 09:32:11;;;;;;;;;;;2.80;62.90;;;;;;5064767;27;88462;-51
2022/03/18 09:34:37;;;;;;;;;;;2.70;63.20;;;;;;5065798;27;87168;-50
2022/03/18 09:37:02;;;;;;;;;;;2.70;63.00;;;;;;5065903;27;86911;-51
2022/03/18 09:39:28;;;;;;;;;;;2.80;62.90;;;;;;5070619;27;86817;-50
2022/03/18 09:41:54;;;;;;;;;;;2.80;62.60;;;;;;5069123;27;87645;-49
2022/03/18 09:44:20;;;;;;;;;;;2.80;62.60;;;;;;5068794;27;87654;-48
2022/03/18 09:46:47;;;;;;;;;;;2.80;63.00;;;;;;5068936;27;86904;-49
2022/03/18 09:49:13;;;;;;;;;;;2.80;62.80;;;;;;5069420;27;87911;-49
2022/03/18 09:51:40;;;;;;;;;;;2.80;62.50;;;;;;5068454;27;88284;-49
2022/03/18 09:54:07;;;;;;;;;;;2.80;62.40;;;;;;5068757;27;86871;-49
2022/03/18 09:56:38;;;;;;;;;;;2.80;62.30;;;;;;5068489;27;87783;-48
2022/03/18 09:59:03;;;;;;;;;;;2.80;62.20;;;;;;5068678;27;87438;-51
2022/03/18 10:01:29;;;;;;;;;;;2.80;62.40;;;;;;5071960;27;86849;-50
2022/03/18 10:04:03;;;;;;;;;;;2.80;62.70;;;;;;5068398;27;87521;-48
2022/03/18 10:06:29;;;;;;;;;;;2.80;61.80;;;;;;5068617;27;86813;-50
2022/03/18 10:08:55;;;;;;;;;;;2.80;61.90;;;;;;5068564;27;88444;-48
2022/03/18 10:11:28;;;;;;;;;;;2.90;61.60;;;;;;5068374;27;87599;-51
2022/03/18 10:14:02;;;;;;;;;;;2.80;61.70;;;;;;5068969;27;86489;-49
2022/03/18 10:16:34;;;;;;;;;;;2.90;62.00;;;;;;5068478;27;87056;-48
2022/03/18 10:19:01;;;;;;;;;;;2.80;62.00;;;;;;5068437;27;87435;-49
2022/03/18 10:21:27;;;;;;;;;;;2.90;61.80;;;;;;5068215;27;87808;-48
2022/03/18 10:24:03;;;;;;;;;;;2.90;61.60;;;;;;5070991;27;87805;-50
2022/03/18 10:26:29;;;;;;;;;;;2.90;61.30;;;;;;5068261;27;86754;-48
2022/03/18 10:28:58;;;;;;;;;;;2.90;61.60;;;;;;5068391;27;87995;-49
2022/03/18 10:31:25;;;;;;;;;;;2.90;61.40;;;;;;5067805;27;88387;-49
2022/03/18 10:39:30;;;;;;;;;;;3.00;61.50;;;;;;5068450;27;86380;-48
2022/03/18 10:41:58;;;;;;;;;;;3.00;61.30;;;;;;5068119;27;86738;-48
2022/03/18 10:44:23;;;;;;;;;;;3.00;61.90;;;;;;5070188;27;87892;-48
2022/03/18 10:46:50;;;;;;;;;;;3.00;62.00;;;;;;5067362;27;87790;-49
2022/03/18 10:49:16;;;;;;;;;;;3.00;61.80;;;;;;5068361;27;87254;-49
2022/03/18 10:51:43;;;;;;;;;;;3.00;61.90;;;;;;5066544;27;89157;-48
2022/03/18 10:54:08;;;;;;;;;;;3.00;61.00;;;;;;5067909;27;86908;-48
2022/03/18 10:56:51;;;;;;;;;;;3.00;61.70;;;;;;5067774;27;87967;-49
2022/03/18 10:59:17;;;;;;;;;;;3.10;61.70;;;;;;5067766;27;87391;-49
2022/03/18 11:01:46;;;;;;;;;;;3.10;61.30;;;;;;5068074;27;87114;-48
2022/03/18 11:04:13;;;;;;;;;;;3.10;61.20;;;;;;5068424;27;86725;-50
2022/03/18 11:06:38;;;;;;;;;;;3.00;61.80;;;;;;5070826;27;87353;-53
2022/03/18 11:09:04;;;;;;;;;;;3.10;61.50;;;;;;5068152;27;87293;-48
2022/03/18 11:11:31;;;;;;;;;;;3.10;61.20;;;;;;5066970;27;88550;-47
2022/03/18 11:14:00;;;;;;;;;;;3.10;61.90;;;;;;5067877;27;86849;-49
2022/03/18 11:16:28;;;;;;;;;;;3.10;61.80;;;;;;5049314;27;87960;-48
2022/03/18 11:18:54;;;;;;;;;;;3.10;61.90;;;;;;5067195;27;88326;-47
2022/03/18 11:21:21;;;;;;;;;;;3.10;62.30;;;;;;5067454;27;86886;-49
2022/03/18 11:23:47;;;;;;;;;;;3.10;62.60;;;;;;5067762;27;86919;-48
2022/03/18 11:26:15;;;;;;;;;;;3.20;62.40;;;;;;5066987;27;88456;-50
2022/03/18 11:28:41;;;;;;;;;;;3.20;61.50;;;;;;5070823;27;86104;-47
2022/03/18 11:31:07;;;;;;;;;;;3.20;62.30;;;;;;5067188;27;87970;-51
2022/03/18 11:33:34;;;;;;;;;;;3.20;62.50;;;;;;5067511;27;86864;-50
2022/03/18 11:36:02;;;;;;;;;;;3.20;61.80;;;;;;5066936;27;87876;-47
2022/03/18 11:38:47;;;;;;;;;;;3.20;62.10;;;;;;5066807;27;87916;-50
2022/03/18 11:41:14;;;;;;;;;;;3.20;62.00;;;;;;5067369;27;86948;-49
2022/03/18 11:43:39;;;;;;;;;;;3.20;61.80;;;;;;5067040;27;87548;-47
2022/03/18 11:46:17;;;;;;;;;;;3.30;61.20;;;;;;5065993;27;88559;-48
2022/03/18 11:48:44;;;;;;;;;;;3.20;61.90;;;;;;5067308;27;86841;-47
2022/03/18 11:51:24;;;;;;;;;;;3.30;61.90;;;;;;5068956;27;87424;-47
2022/03/18 11:53:52;;;;;;;;;;;3.30;60.90;;;;;;5067730;27;86364;-48
2022/03/18 11:56:19;;;;;;;;;;;3.30;61.00;;;;;;5066983;27;86879;-47
2022/03/18 11:58:44;;;;;;;;;;;3.30;61.40;;;;;;5066806;27;87501;-47
2022/03/18 12:01:30;;;;;;;;;;;3.30;61.00;;;;;;5066469;27;88024;-47
2022/03/18 12:03:57;;;;;;;;;;;3.30;61.60;;;;;;5052043;27;89002;-49
2022/03/18 12:06:22;;;;;;;;;;;3.30;60.70;;;;;;5066405;27;88622;-48
2022/03/18 12:08:54;;;;;;;;;;;3.30;60.80;;;;;;5066850;27;86855;-49
2022/03/18 12:11:29;;;;;;;;;;;3.30;60.80;;;;;;5066597;27;87792;-47
2022/03/18 12:13:55;;;;;;;;;;;3.30;61.00;;;;;;5069329;27;87583;-47
2022/03/18 12:16:22;;;;;;;;;;;3.30;61.20;;;;;;5066672;27;88057;-49
2022/03/18 12:18:53;;;;;;;;;;;3.40;60.80;;;;;;5066825;27;86729;-47
2022/03/18 12:21:31;;;;;;;;;;;3.40;61.20;;;;;;5066527;27;86900;-49
2022/03/18 12:24:07;;;;;;;;;;;3.40;60.70;;;;;;5066832;27;86862;-48
2022/03/18 12:26:33;;;;;;;;;;;3.40;61.30;;;;;;5065778;27;88319;-49
2022/03/18 12:28:59;;;;;;;;;;;3.40;60.30;;;;;;5066244;27;86878;-48
2022/03/18 12:31:25;;;;;;;;;;;3.40;60.70;;;;;;5066354;27;87592;-47
2022/03/18 12:34:01;;;;;;;;;;;3.50;60.20;;;;;;5066008;27;88156;-48
2022/03/18 12:36:27;;;;;;;;;;;3.50;59.70;;;;;;5069172;27;86801;-49
2022/03/18 12:39:25;;;;;;;;;;;3.50;60.40;;;;;;5066281;27;87396;-47
2022/03/18 12:41:52;;;;;;;;;;;3.50;60.30;;;;;;5020995;27;86974;-51
2022/03/18 12:44:30;;;;;;;;;;;3.50;60.80;;;;;;5066654;27;87033;-49
2022/03/18 12:46:57;;;;;;;;;;;3.60;60.30;;;;;;5065767;27;88516;-51
2022/03/18 12:49:33;;;;;;;;;;;3.60;60.10;;;;;;5066059;27;86890;-48
2022/03/18 12:51:59;;;;;;;;;;;3.50;60.40;;;;;;5065409;27;88170;-47
2022/03/18 12:54:25;;;;;;;;;;;3.50;60.50;;;;;;5065803;27;89013;-51
2022/03/18 12:56:50;;;;;;;;;;;3.60;59.80;;;;;;5068929;27;87164;-50
2022/03/18 12:59:17;;;;;;;;;;;3.60;60.30;;;;;;5065723;27;88535;-47
2022/03/18 13:01:53;;;;;;;;;;;3.60;60.20;;;;;;5066093;27;87042;-50
2022/03/18 13:04:20;;;;;;;;;;;3.60;60.10;;;;;;5065892;27;87330;-48
2022/03/18 13:06:49;;;;;;;;;;;3.60;60.20;;;;;;5065631;27;87622;-47
2022/03/18 13:09:16;;;;;;;;;;;3.60;60.30;;;;;;5066576;27;86506;-47
2022/03/18 13:11:42;;;;;;;;;;;3.60;59.90;;;;;;5066091;27;87126;-47
2022/03/18 13:14:09;;;;;;;;;;;3.60;60.30;;;;;;5067324;27;88384;-47
2022/03/18 13:16:35;;;;;;;;;;;3.60;60.00;;;;;;5068839;27;87920;-48
2022/03/18 13:19:03;;;;;;;;;;;3.70;59.90;;;;;;5072011;27;88972;-48
2022/03/18 13:21:37;;;;;;;;;;;3.70;59.70;;;;;;5069437;27;86894;-48
2022/03/18 13:24:03;;;;;;;;;;;3.70;59.30;;;;;;5069650;27;88202;-48
2022/03/18 13:26:29;;;;;;;;;;;3.70;59.70;;;;;;5069111;27;87884;-47
2022/03/18 13:28:55;;;;;;;;;;;3.70;58.80;;;;;;5069277;27;87143;-51
2022/03/18 13:34:05;;;;;;;;;;;3.70;58.90;;;;;;5066298;27;86328;-49
2022/03/18 13:36:33;;;;;;;;;;;3.80;59.60;;;;;;5068910;27;86877;-48
2022/03/18 13:39:09;;;;;;;;;;;3.70;58.60;;;;;;5069099;27;87103;-48
2022/03/18 13:41:48;;;;;;;;;;;3.80;59.60;;;;;;5070864;27;88699;-51
2022/03/18 13:44:15;;;;;;;;;;;3.80;59.70;;;;;;5069202;27;88179;-48
2022/03/18 13:46:41;;;;;;;;;;;3.80;59.50;;;;;;5068338;27;88412;-49
2022/03/18 13:49:14;;;;;;;;;;;3.80;59.80;;;;;;5068911;27;86770;-48
2022/03/18 13:51:41;;;;;;;;;;;3.80;59.90;;;;;;5068977;27;87317;-48
2022/03/18 13:54:08;;;;;;;;;;;3.80;59.90;;;;;;5068444;27;88362;-47
2022/03/18 13:56:35;;;;;;;;;;;3.80;59.60;;;;;;5069106;27;86982;-48
2022/03/18 13:59:10;;;;;;;;;;;3.80;59.70;;;;;;5069341;27;86119;-51
2022/03/18 14:01:36;;;;;;;;;;;3.80;59.50;;;;;;5068402;27;88578;-48
2022/03/18 14:04:01;;;;;;;;;;;3.80;59.70;;;;;;5071786;27;87083;-47
2022/03/18 14:06:27;;;;;;;;;;;3.80;60.00;;;;;;5067569;27;89468;-47
2022/03/18 14:08:54;;;;;;;;;;;3.90;59.90;;;;;;5068536;27;86849;-50
2022/03/18 14:14:20;;;;;;;;;;;3.80;59.70;;;;;;5068433;27;87180;-48
2022/03/18 14:17:05;;;;;;;;;;;3.90;59.50;;;;;;5068394;27;86851;-48
2022/03/18 14:19:45;;;;;;;;;;;3.90;59.50;;;;;;5068790;27;86806;-47
2022/03/18 14:22:27;;;;;;;;;;;3.90;59.50;;;;;;5067958;27;87630;-50
2022/03/18 14:24:53;;;;;;;;;;;3.90;58.90;;;;;;5067693;27;86042;-47
2022/03/18 14:27:18;;;;;;;;;;;3.90;59.30;;;;;;5070988;27;86918;-47
2022/03/18 14:29:44;;;;;;;;;;;4.00;58.90;;;;;;5068670;27;86876;-48
2022/03/18 14:32:09;;;;;;;;;;;4.00;59.10;;;;;;5067609;27;87775;-48
2022/03/18 14:34:35;;;;;;;;;;;4.10;58.60;;;;;;5067857;27;88266;-48
2022/03/18 14:37:01;;;;;;;;;;;4.00;58.80;;;;;;5068436;27;86905;-47
2022/03/18 14:39:26;;;;;;;;;;;4.10;58.90;;;;;;5068438;27;86870;-48
2022/03/18 14:41:52;;;;;;;;;;;4.10;58.60;;;;;;5067008;27;86808;-47
2022/03/18 14:44:18;;;;;;;;;;;4.10;59.30;;;;;;5067963;27;87249;-48
2022/03/18 14:46:44;;;;;;;;;;;4.10;58.60;;;;;;5067801;27;87712;-48
2022/03/18 14:49:09;;;;;;;;;;;4.10;58.70;;;;;;5071275;27;86260;-50